Observation data for Memphis on 03/24/2019      Previous  Date       Current Mesonet Observations  Soil Data  Daily Summary Page  Observations in Plain Language
KMES 240500Z 15000KT 13/05 A2996 RMK A01 T01310051  RH  060%=      5-min Rain = 0
KMES 240505Z 13002KT 13/05 A2995 RMK A01 T01310051  RH  060%=      5-min Rain = 0
KMES 240510Z 11004KT 13/05 A2995 RMK A01 T01300051  RH  060%=      5-min Rain = 0
KMES 240515Z 10004KT 13/05 A2995 RMK A01 T01290051  RH  060%=      5-min Rain = 0
KMES 240520Z 10004KT 13/05 A2995 RMK A01 T01290051  RH  061%=      5-min Rain = 0
KMES 240525Z 08001KT 13/05 A2995 RMK A01 T01280053  RH  062%=      5-min Rain = 0
KMES 240530Z 27002KT 12/05 A2995 RMK A01 T01170054  RH  067%=      5-min Rain = 0
KMES 240535Z 25000KT 11/05 A2995 RMK A01 T01120054  RH  069%=      5-min Rain = 0
KMES 240540Z 11001KT 11/06 A2995 RMK A01 T01100055  RH  070%=      5-min Rain = 0
KMES 240545Z 12003KT 11/06 A2995 RMK A01 T01110056  RH  071%=      5-min Rain = 0
KMES 240550Z 12003KT 11/06 A2995 RMK A01 T01130057  RH  070%=      5-min Rain = 0
KMES 240555Z 12002KT 11/06 A2995 RMK A01 T01130056  RH  069%=      5-min Rain = 0
KMES 240600Z 25000KT 11/06 A2995 RMK A01 T01110056  RH  071%=      5-min Rain = 0
KMES 240605Z 23003KT 10/05 A2995 RMK A01 T01040053  RH  072%=      5-min Rain = 0
KMES 240610Z 16002KT 10/05 A2995 RMK A01 T01030053  RH  073%=      5-min Rain = 0
KMES 240615Z 15001KT 10/05 A2995 RMK A01 T01000053  RH  074%=      5-min Rain = 0
KMES 240620Z 25000KT 10/05 A2995 RMK A01 T00970054  RH  077%=      5-min Rain = 0
KMES 240625Z 25000KT 09/05 A2995 RMK A01 T00920053  RH  078%=      5-min Rain = 0
KMES 240630Z 00000KT 09/06 A2995 RMK A01 T00900055  RH  081%=      5-min Rain = 0
KMES 240635Z 31000KT 09/06 A2995 RMK A01 T00880056  RH  082%=      5-min Rain = 0
KMES 240640Z 31002KT 09/06 A2995 RMK A01 T00890057  RH  082%=      5-min Rain = 0
KMES 240645Z 32001KT 09/05 A2994 RMK A01 T00870053  RH  081%=      5-min Rain = 0
KMES 240650Z 00000KT 09/05 A2994 RMK A01 T00870054  RH  082%=      5-min Rain = 0
KMES 240655Z 27002KT 09/05 A2994 RMK A01 T00870053  RH  081%=      5-min Rain = 0
KMES 240700Z 27001KT 08/05 A2994 RMK A01 T00830050  RH  081%=      5-min Rain = 0
KMES 240705Z 18000KT 08/05 A2994 RMK A01 T00820050  RH  082%=      5-min Rain = 0
KMES 240710Z 19002KT 08/05 A2994 RMK A01 T00820050  RH  082%=      5-min Rain = 0
KMES 240715Z 18000KT 08/05 A2994 RMK A01 T00800050  RH  083%=      5-min Rain = 0
KMES 240720Z 29003KT 08/05 A2994 RMK A01 T00780050  RH  084%=      5-min Rain = 0
KMES 240725Z 29001KT 08/05 A2994 RMK A01 T00770050  RH  085%=      5-min Rain = 0
KMES 240730Z 00000KT 08/05 A2994 RMK A01 T00760050  RH  085%=      5-min Rain = 0
KMES 240735Z 27001KT 08/05 A2994 RMK A01 T00760050  RH  086%=      5-min Rain = 0
KMES 240740Z 27001KT 08/05 A2994 RMK A01 T00750051  RH  086%=      5-min Rain = 0
KMES 240745Z 28003KT 08/05 A2994 RMK A01 T00750052  RH  087%=      5-min Rain = 0
KMES 240750Z 28001KT 08/05 A2994 RMK A01 T00760052  RH  087%=      5-min Rain = 0
KMES 240755Z 30002KT 08/05 A2994 RMK A01 T00760053  RH  087%=      5-min Rain = 0
KMES 240800Z 32002KT 07/05 A2994 RMK A01 T00740051  RH  087%=      5-min Rain = 0
KMES 240805Z 30002KT 08/05 A2994 RMK A01 T00750053  RH  088%=      5-min Rain = 0
KMES 240810Z 29002KT 08/05 A2994 RMK A01 T00770054  RH  088%=      5-min Rain = 0
KMES 240815Z 30002KT 08/05 A2994 RMK A01 T00750052  RH  087%=      5-min Rain = 0
KMES 240820Z 30003KT 07/05 A2994 RMK A01 T00740050  RH  087%=      5-min Rain = 0
KMES 240825Z 30003KT 07/05 A2994 RMK A01 T00730049  RH  087%=      5-min Rain = 0
KMES 240830Z 29002KT 07/05 A2993 RMK A01 T00720048  RH  087%=      5-min Rain = 0
KMES 240835Z 28002KT 07/05 A2993 RMK A01 T00720049  RH  087%=      5-min Rain = 0
KMES 240840Z 29002KT 07/05 A2993 RMK A01 T00710048  RH  087%=      5-min Rain = 0
KMES 240845Z 29003KT 07/05 A2993 RMK A01 T00700048  RH  088%=      5-min Rain = 0
KMES 240850Z 29003KT 07/05 A2994 RMK A01 T00700050  RH  089%=      5-min Rain = 0
KMES 240855Z 29004KT 07/05 A2994 RMK A01 T00720051  RH  089%=      5-min Rain = 0
KMES 240900Z 30003KT 07/05 A2993 RMK A01 T00730053  RH  089%=      5-min Rain = 0
KMES 240905Z 29004KT 07/05 A2994 RMK A01 T00740052  RH  088%=      5-min Rain = 0
KMES 240910Z 29004KT 07/05 A2994 RMK A01 T00730052  RH  088%=      5-min Rain = 0
KMES 240915Z 29005KT 07/05 A2994 RMK A01 T00740052  RH  088%=      5-min Rain = 0
KMES 240920Z 29005KT 08/05 A2994 RMK A01 T00760052  RH  087%=      5-min Rain = 0
KMES 240925Z 31005KT 08/05 A2994 RMK A01 T00780054  RH  086%=      5-min Rain = 0
KMES 240930Z 32006KT 08/05 A2994 RMK A01 T00780052  RH  085%=      5-min Rain = 0
KMES 240935Z 30003KT 08/05 A2994 RMK A01 T00800053  RH  085%=      5-min Rain = 0
KMES 240940Z 30005KT 08/05 A2994 RMK A01 T00800051  RH  084%=      5-min Rain = 0
KMES 240945Z 31005KT 08/05 A2995 RMK A01 T00800051  RH  084%=      5-min Rain = 0
KMES 240950Z 33005KT 08/05 A2995 RMK A01 T00830052  RH  082%=      5-min Rain = 0
KMES 240955Z 33005KT 08/05 A2995 RMK A01 T00800051  RH  084%=      5-min Rain = 0
KMES 241000Z 34008KT 09/06 A2996 RMK A01 T00860056  RH  084%=      5-min Rain = 0
KMES 241005Z 33008KT 09/06 A2996 RMK A01 T00940056  RH  079%=      5-min Rain = 0
KMES 241010Z 33008KT 09/06 A2996 RMK A01 T00910055  RH  080%=      5-min Rain = 0
KMES 241015Z 32007KT 09/06 A2996 RMK A01 T00890055  RH  081%=      5-min Rain = 0
KMES 241020Z 33007KT 09/05 A2997 RMK A01 T00880053  RH  081%=      5-min Rain = 0
KMES 241025Z 33007KT 09/05 A2997 RMK A01 T00860053  RH  082%=      5-min Rain = 0
KMES 241030Z 34005KT 09/05 A2997 RMK A01 T00860053  RH  081%=      5-min Rain = 0
KMES 241035Z 33003KT 08/05 A2997 RMK A01 T00840052  RH  082%=      5-min Rain = 0
KMES 241040Z 33004KT 08/05 A2998 RMK A01 T00820051  RH  083%=      5-min Rain = 0
KMES 241045Z 34007KT 08/05 A2998 RMK A01 T00800051  RH  084%=      5-min Rain = 0
KMES 241050Z 35011KT 08/05 A2998 RMK A01 T00820050  RH  082%=      5-min Rain = 0
KMES 241055Z 36011KT 09/05 A2998 RMK A01 T00860048  RH  079%=      5-min Rain = 0
KMES 241100Z 36010KT 09/05 A2998 RMK A01 T00850046  RH  078%=      5-min Rain = 0
KMES 241105Z 35010KT 09/05 A2998 RMK A01 T00860045  RH  077%=      5-min Rain = 0
KMES 241110Z 35011KT 09/05 A2998 RMK A01 T00850046  RH  078%=      5-min Rain = 0
KMES 241115Z 35011KT 08/05 A2998 RMK A01 T00840045  RH  078%=      5-min Rain = 0
KMES 241120Z 35012KT 08/05 A2998 RMK A01 T00830045  RH  079%=      5-min Rain = 0
KMES 241125Z 35012KT 08/05 A2998 RMK A01 T00820046  RH  079%=      5-min Rain = 0
KMES 241130Z 35013KT 08/05 A2998 RMK A01 T00820046  RH  079%=      5-min Rain = 0
KMES 241135Z 35012KT 08/05 A2998 RMK A01 T00820047  RH  080%=      5-min Rain = 0
KMES 241140Z 35013KT 08/05 A2998 RMK A01 T00820047  RH  080%=      5-min Rain = 0
KMES 241145Z 34013KT 08/05 A2999 RMK A01 T00820047  RH  080%=      5-min Rain = 0
KMES 241150Z 34014KT 08/05 A2999 RMK A01 T00820047  RH  080%=      5-min Rain = 0
KMES 241155Z 34014KT 08/05 A2999 RMK A01 T00820047  RH  080%=      5-min Rain = 0
KMES 241200Z 34013KT 08/05 A2999 RMK A01 T00820047  RH  080%=      5-min Rain = 0
KMES 241205Z 34014KT 08/05 A2999 RMK A01 T00820047  RH  080%=      5-min Rain = 0
KMES 241210Z 35014G19KT 08/05 A2999 RMK A01 T00820047  RH  080%=      5-min Rain = 0
KMES 241215Z 35014KT 08/05 A2999 RMK A01 T00820046  RH  080%=      5-min Rain = 0
KMES 241220Z 35014KT 08/05 A2999 RMK A01 T00820046  RH  080%=      5-min Rain = 0
KMES 241225Z 35013KT 08/05 A2999 RMK A01 T00820046  RH  080%=      5-min Rain = 0
KMES 241230Z 35012KT 08/05 A30 RMK A01 T00810046  RH  080%=      5-min Rain = 0
KMES 241235Z 35013KT 08/05 A30 RMK A01 T00810046  RH  080%=      5-min Rain = 0
KMES 241240Z 35012KT 08/05 A30 RMK A01 T00800046  RH  081%=      5-min Rain = 0
KMES 241245Z 34012KT 08/05 A30 RMK A01 T00800046  RH  081%=      5-min Rain = 0
KMES 241250Z 35011KT 08/05 A30 RMK A01 T00800046  RH  081%=      5-min Rain = 0
KMES 241255Z 34011KT 08/05 A3001 RMK A01 T00810046  RH  080%=      5-min Rain = 0
KMES 241300Z 34010KT 08/05 A3001 RMK A01 T00820046  RH  080%=      5-min Rain = 0
KMES 241305Z 34009G14KT 08/05 A3002 RMK A01 T00820047  RH  080%=      5-min Rain = 0
KMES 241310Z 35008KT 08/05 A3002 RMK A01 T00820047  RH  081%=      5-min Rain = 0
KMES 241315Z 35007KT 08/05 A3003 RMK A01 T00830047  RH  080%=      5-min Rain = 0
KMES 241320Z 35009KT 08/05 A3003 RMK A01 T00840048  RH  080%=      5-min Rain = 0
KMES 241325Z 35011KT 09/05 A3003 RMK A01 T00860049  RH  079%=      5-min Rain = 0
KMES 241330Z 35010KT 09/05 A3004 RMK A01 T00880050  RH  079%=      5-min Rain = 0
KMES 241335Z 35010KT 09/05 A3004 RMK A01 T00890050  RH  078%=      5-min Rain = 0
KMES 241340Z 34010KT 09/05 A3004 RMK A01 T00900050  RH  078%=      5-min Rain = 0
KMES 241345Z 35009G14KT 09/05 A3005 RMK A01 T00920051  RH  077%=      5-min Rain = 0
KMES 241350Z 34010KT 09/05 A3005 RMK A01 T00940052  RH  077%=      5-min Rain = 0
KMES 241355Z 35010KT 10/05 A3005 RMK A01 T00960053  RH  076%=      5-min Rain = 0
KMES 241400Z 35011KT 10/05 A3005 RMK A01 T00980054  RH  076%=      5-min Rain = 0
KMES 241405Z 35010KT 10/06 A3005 RMK A01 T01000057  RH  076%=      5-min Rain = 0
KMES 241410Z 36011KT 10/06 A3005 RMK A01 T01010055  RH  075%=      5-min Rain = 0
KMES 241415Z 36012KT 10/06 A3005 RMK A01 T01020055  RH  074%=      5-min Rain = 0
KMES 241420Z 35012G17KT 10/06 A3006 RMK A01 T01040056  RH  074%=      5-min Rain = 0
KMES 241425Z 36012KT 11/06 A3006 RMK A01 T01050056  RH  073%=      5-min Rain = 0
KMES 241430Z 35011KT 11/06 A3006 RMK A01 T01080058  RH  073%=      5-min Rain = 0
KMES 241435Z 35011KT 11/06 A3007 RMK A01 T01100059  RH  072%=      5-min Rain = 0
KMES 241440Z 36010KT 11/06 A3007 RMK A01 T01120059  RH  071%=      5-min Rain = 0
KMES 241445Z 36012G17KT 11/06 A3007 RMK A01 T01140057  RH  070%=      5-min Rain = 0
KMES 241450Z 36012KT 12/06 A3007 RMK A01 T01150058  RH  069%=      5-min Rain = 0
KMES 241455Z 35012KT 12/06 A3007 RMK A01 T01170060  RH  070%=      5-min Rain = 0
KMES 241500Z 36012KT 12/06 A3007 RMK A01 T01190060  RH  069%=      5-min Rain = 0
KMES 241505Z 36012KT 12/06 A3007 RMK A01 T01220061  RH  068%=      5-min Rain = 0
KMES 241510Z 01010KT 13/06 A3007 RMK A01 T01250064  RH  068%=      5-min Rain = 0
KMES 241515Z 01011KT 13/06 A3007 RMK A01 T01290062  RH  066%=      5-min Rain = 0
KMES 241520Z 01011KT 13/06 A3007 RMK A01 T01300061  RH  064%=      5-min Rain = 0
KMES 241525Z 36012KT 13/06 A3007 RMK A01 T01320062  RH  064%=      5-min Rain = 0
KMES 241530Z 35010KT 13/07 A3007 RMK A01 T01340065  RH  064%=      5-min Rain = 0
KMES 241535Z 01011KT 14/06 A3007 RMK A01 T01360062  RH  062%=      5-min Rain = 0
KMES 241540Z 00009KT 14/06 A3007 RMK A01 T01380062  RH  061%=      5-min Rain = 0
KMES 241545Z 00009KT 14/06 A3007 RMK A01 T01400060  RH  060%=      5-min Rain = 0
KMES 241550Z 00009KT 14/06 A3007 RMK A01 T01430064  RH  060%=      5-min Rain = 0
KMES 241555Z 35009KT 15/06 A3007 RMK A01 T01450064  RH  060%=      5-min Rain = 0
KMES 241600Z 35010KT 15/06 A3008 RMK A01 T01460064  RH  060%=      5-min Rain = 0
KMES 241605Z 35009KT 15/07 A3007 RMK A01 T01490068  RH  060%=      5-min Rain = 0
KMES 241610Z 35010KT 15/07 A3007 RMK A01 T01490065  RH  058%=      5-min Rain = 0
KMES 241615Z 01008KT 15/07 A3008 RMK A01 T01540067  RH  058%=      5-min Rain = 0
KMES 241620Z 36009KT 16/06 A3008 RMK A01 T01550064  RH  056%=      5-min Rain = 0
KMES 241625Z 36007G12KT 16/07 A3008 RMK A01 T01570066  RH  056%=      5-min Rain = 0
KMES 241630Z 36007G12KT 16/06 A3008 RMK A01 T01590060  RH  053%=      5-min Rain = 0
KMES 241635Z 36007KT 16/06 A3008 RMK A01 T01620064  RH  053%=      5-min Rain = 0
KMES 241640Z 35007G12KT 16/06 A3008 RMK A01 T01640063  RH  052%=      5-min Rain = 0
KMES 241645Z 34007KT 17/07 A3008 RMK A01 T01670066  RH  053%=      5-min Rain = 0
KMES 241650Z 34007G12KT 17/07 A3008 RMK A01 T01690065  RH  052%=      5-min Rain = 0
KMES 241655Z 01008KT 17/06 A3008 RMK A01 T01710059  RH  049%=      5-min Rain = 0
KMES 241700Z 01005G10KT 17/06 A3008 RMK A01 T01710060  RH  049%=      5-min Rain = 0
KMES 241705Z 01007KT 17/06 A3008 RMK A01 T01730058  RH  048%=      5-min Rain = 0
KMES 241710Z 36005KT 17/06 A3008 RMK A01 T01730058  RH  048%=      5-min Rain = 0
KMES 241715Z 04007KT 18/06 A3008 RMK A01 T01780056  RH  046%=      5-min Rain = 0
KMES 241720Z 02008KT 18/06 A3007 RMK A01 T01790055  RH  045%=      5-min Rain = 0
KMES 241725Z 01006KT 18/05 A3007 RMK A01 T01770054  RH  045%=      5-min Rain = 0
KMES 241730Z 04007KT 18/06 A3007 RMK A01 T01800055  RH  045%=      5-min Rain = 0
KMES 241735Z 04007KT 18/05 A3007 RMK A01 T01820051  RH  043%=      5-min Rain = 0
KMES 241740Z 03007G12KT 18/05 A3007 RMK A01 T01820052  RH  043%=      5-min Rain = 0
KMES 241745Z 05006KT 18/05 A3007 RMK A01 T01810053  RH  044%=      5-min Rain = 0
KMES 241750Z 03007KT 18/06 A3007 RMK A01 T01820055  RH  044%=      5-min Rain = 0
KMES 241755Z 03007KT 18/05 A3007 RMK A01 T01810051  RH  043%=      5-min Rain = 0
KMES 241800Z 01004KT 18/05 A3007 RMK A01 T01800054  RH  044%=      5-min Rain = 0
KMES 241805Z 02005KT 18/06 A3007 RMK A01 T01830057  RH  044%=      5-min Rain = 0
KMES 241810Z 04007KT 18/05 A3007 RMK A01 T01820049  RH  042%=      5-min Rain = 0
KMES 241815Z 05006KT 18/05 A3006 RMK A01 T01830045  RH  041%=      5-min Rain = 0
KMES 241820Z 02006KT 18/05 A3006 RMK A01 T01820045  RH  041%=      5-min Rain = 0
KMES 241825Z 05004KT 18/05 A3006 RMK A01 T01820048  RH  042%=      5-min Rain = 0
KMES 241830Z 03006KT 19/05 A3006 RMK A01 T01850046  RH  041%=      5-min Rain = 0
KMES 241835Z 04004KT 19/05 A3006 RMK A01 T01860048  RH  041%=      5-min Rain = 0
KMES 241840Z 03003KT 19/05 A3006 RMK A01 T01890049  RH  040%=      5-min Rain = 0
KMES 241845Z 00005G13KT 19/05 A3006 RMK A01 T01910053  RH  041%=      5-min Rain = 0
KMES 241850Z 01006KT 19/06 A3006 RMK A01 T01920055  RH  041%=      5-min Rain = 0
KMES 241855Z 04006KT 19/06 A3006 RMK A01 T01940055  RH  041%=      5-min Rain = 0
KMES 241900Z 03004KT 19/06 A3006 RMK A01 T01930056  RH  041%=      5-min Rain = 0
KMES 241905Z 02006KT 19/06 A3005 RMK A01 T01920056  RH  042%=      5-min Rain = 0
KMES 241910Z 01007KT 19/06 A3005 RMK A01 T01910057  RH  042%=      5-min Rain = 0
KMES 241915Z 36007KT 19/06 A3006 RMK A01 T01930063  RH  044%=      5-min Rain = 0
KMES 241920Z 01006KT 19/06 A3006 RMK A01 T01920055  RH  041%=      5-min Rain = 0
KMES 241925Z 02005G10KT 19/05 A3006 RMK A01 T01900049  RH  040%=      5-min Rain = 0
KMES 241930Z 02006G12KT 19/05 A3005 RMK A01 T01910053  RH  041%=      5-min Rain = 0
KMES 241935Z 02006KT 19/05 A3005 RMK A01 T01920053  RH  041%=      5-min Rain = 0
KMES 241940Z 01003KT 19/05 A3005 RMK A01 T01920048  RH  040%=      5-min Rain = 0
KMES 241945Z 02005KT 20/05 A3004 RMK A01 T01950051  RH  040%=      5-min Rain = 0
KMES 241950Z 01006KT 20/05 A3004 RMK A01 T01950049  RH  039%=      5-min Rain = 0
KMES 241955Z 35004KT 19/04 A3004 RMK A01 T01930043  RH  038%=      5-min Rain = 0
KMES 242000Z 36005KT 20/05 A3004 RMK A01 T01960051  RH  040%=      5-min Rain = 0
KMES 242005Z 01003KT 20/05 A3004 RMK A01 T02000051  RH  038%=      5-min Rain = 0
KMES 242010Z 36003KT 20/05 A3004 RMK A01 T01990049  RH  038%=      5-min Rain = 0
KMES 242015Z 06002G7KT 20/05 A3004 RMK A01 T02010049  RH  038%=      5-min Rain = 0
KMES 242020Z 01007KT 20/05 A3003 RMK A01 T02040050  RH  037%=      5-min Rain = 0
KMES 242025Z 03005KT 20/05 A3003 RMK A01 T02030046  RH  037%=      5-min Rain = 0
KMES 242030Z 04005KT 20/04 A3004 RMK A01 T02040043  RH  035%=      5-min Rain = 0
KMES 242035Z 09003KT 20/04 A3004 RMK A01 T02020036  RH  034%=      5-min Rain = 0
KMES 242040Z 08002KT 21/04 A3004 RMK A01 T02070040  RH  034%=      5-min Rain = 0
KMES 242045Z 07003KT 21/04 A3004 RMK A01 T02090037  RH  033%=      5-min Rain = 0
KMES 242050Z 03005KT 21/04 A3003 RMK A01 T02110043  RH  034%=      5-min Rain = 0
KMES 242055Z 04007KT 21/04 A3002 RMK A01 T02080037  RH  033%=      5-min Rain = 0
KMES 242100Z 08002G7KT 21/03 A3002 RMK A01 T02080032  RH  032%=      5-min Rain = 0
KMES 242105Z 10004KT 21/03 A3002 RMK A01 T02110034  RH  032%=      5-min Rain = 0
KMES 242110Z 08003KT 21/03 A3002 RMK A01 T02090033  RH  032%=      5-min Rain = 0
KMES 242115Z 09003KT 21/03 A3003 RMK A01 T02090034  RH  032%=      5-min Rain = 0
KMES 242120Z 09005KT 21/04 A3003 RMK A01 T02090038  RH  033%=      5-min Rain = 0
KMES 242125Z 06004KT 21/04 A3003 RMK A01 T02130039  RH  032%=      5-min Rain = 0
KMES 242130Z 06003KT 21/04 A3003 RMK A01 T02080036  RH  033%=      5-min Rain = 0
KMES 242135Z 09002KT 21/04 A3003 RMK A01 T02070037  RH  033%=      5-min Rain = 0
KMES 242140Z 08004KT 21/04 A3003 RMK A01 T02080037  RH  033%=      5-min Rain = 0
KMES 242145Z 06004KT 21/04 A3003 RMK A01 T02080037  RH  033%=      5-min Rain = 0
KMES 242150Z 10001KT 21/03 A3003 RMK A01 T02070033  RH  032%=      5-min Rain = 0
KMES 242155Z 04004KT 21/04 A3003 RMK A01 T02100039  RH  033%=      5-min Rain = 0
KMES 242200Z 06005KT 21/04 A3003 RMK A01 T02100043  RH  034%=      5-min Rain = 0
KMES 242205Z 04006KT 21/04 A3003 RMK A01 T02100041  RH  034%=      5-min Rain = 0
KMES 242210Z 05005KT 21/04 A3003 RMK A01 T02090037  RH  033%=      5-min Rain = 0
KMES 242215Z 08001KT 21/04 A3003 RMK A01 T02100037  RH  033%=      5-min Rain = 0
KMES 242220Z 11003KT 21/04 A3003 RMK A01 T02120037  RH  032%=      5-min Rain = 0
KMES 242225Z 08004KT 21/04 A3003 RMK A01 T02130038  RH  032%=      5-min Rain = 0
KMES 242230Z 09006KT 21/04 A3002 RMK A01 T02130038  RH  032%=      5-min Rain = 0
KMES 242235Z 09004KT 21/04 A3002 RMK A01 T02120036  RH  032%=      5-min Rain = 0
KMES 242240Z 10003KT 21/04 A3002 RMK A01 T02130037  RH  032%=      5-min Rain = 0
KMES 242245Z 10002KT 21/04 A3002 RMK A01 T02140037  RH  032%=      5-min Rain = 0
KMES 242250Z 10002KT 22/04 A3002 RMK A01 T02170038  RH  031%=      5-min Rain = 0
KMES 242255Z 14003KT 22/04 A3002 RMK A01 T02160036  RH  031%=      5-min Rain = 0
KMES 242300Z 13002G7KT 22/04 A3002 RMK A01 T02170037  RH  031%=      5-min Rain = 0
KMES 242305Z 05005KT 22/04 A3001 RMK A01 T02160040  RH  032%=      5-min Rain = 0
KMES 242310Z 06003KT 21/04 A3001 RMK A01 T02130040  RH  033%=      5-min Rain = 0
KMES 242315Z 04004KT 21/04 A3001 RMK A01 T02110039  RH  033%=      5-min Rain = 0
KMES 242320Z 04003KT 21/04 A3002 RMK A01 T02110041  RH  033%=      5-min Rain = 0
KMES 242325Z 04002KT 21/04 A3002 RMK A01 T02130041  RH  033%=      5-min Rain = 0
KMES 242330Z 05003KT 21/04 A3002 RMK A01 T02120039  RH  033%=      5-min Rain = 0
KMES 242335Z 35001KT 21/04 A3003 RMK A01 T02130041  RH  033%=      5-min Rain = 0
KMES 242340Z 14002KT 22/04 A3003 RMK A01 T02150040  RH  032%=      5-min Rain = 0
KMES 242345Z 09002KT 22/04 A3003 RMK A01 T02150039  RH  032%=      5-min Rain = 0
KMES 242350Z 05002KT 21/04 A3003 RMK A01 T02140039  RH  032%=      5-min Rain = 0
KMES 242355Z 36004KT 21/05 A3003 RMK A01 T02110046  RH  035%=      5-min Rain = 0
KMES 250000Z 36004KT 21/04 A3003 RMK A01 T02090040  RH  034%=      5-min Rain = 0
KMES 250005Z 03002KT 21/04 A3003 RMK A01 T02080036  RH  033%=      5-min Rain = 0
KMES 250010Z 02004KT 21/04 A3003 RMK A01 T02080036  RH  033%=      5-min Rain = 0
KMES 250015Z 02002KT 21/04 A3003 RMK A01 T02070039  RH  034%=      5-min Rain = 0
KMES 250020Z 04002KT 21/04 A3003 RMK A01 T02070038  RH  034%=      5-min Rain = 0
KMES 250025Z 06003KT 21/04 A3004 RMK A01 T02060044  RH  035%=      5-min Rain = 0
KMES 250030Z 06003KT 20/05 A3004 RMK A01 T02040047  RH  037%=      5-min Rain = 0
KMES 250035Z 06003KT 20/05 A3004 RMK A01 T02010050  RH  038%=      5-min Rain = 0
KMES 250040Z 06003KT 20/05 A3004 RMK A01 T01980048  RH  038%=      5-min Rain = 0
KMES 250045Z 06005KT 20/05 A3004 RMK A01 T01960050  RH  039%=      5-min Rain = 0
KMES 250050Z 06006KT 19/05 A3004 RMK A01 T01890052  RH  041%=      5-min Rain = 0
KMES 250055Z 06005KT 18/06 A3004 RMK A01 T01830056  RH  044%=      5-min Rain = 0
KMES 250100Z 05006KT 18/06 A3004 RMK A01 T01770057  RH  046%=      5-min Rain = 0
KMES 250105Z 05007KT 17/06 A3004 RMK A01 T01720055  RH  047%=      5-min Rain = 0
KMES 250110Z 04007KT 17/06 A3004 RMK A01 T01710056  RH  048%=      5-min Rain = 0
KMES 250115Z 05007KT 17/06 A3004 RMK A01 T01680055  RH  048%=      5-min Rain = 0
KMES 250120Z 04007KT 17/06 A3004 RMK A01 T01670056  RH  049%=      5-min Rain = 0
KMES 250125Z 05007KT 16/06 A3004 RMK A01 T01630058  RH  051%=      5-min Rain = 0
KMES 250130Z 05006KT 16/06 A3004 RMK A01 T01590060  RH  053%=      5-min Rain = 0
KMES 250135Z 05006KT 16/06 A3004 RMK A01 T01560061  RH  054%=      5-min Rain = 0
KMES 250140Z 05006KT 15/06 A3005 RMK A01 T01540061  RH  055%=      5-min Rain = 0
KMES 250145Z 05006KT 15/06 A3005 RMK A01 T01510062  RH  057%=      5-min Rain = 0
KMES 250150Z 05006KT 15/06 A3005 RMK A01 T01480060  RH  057%=      5-min Rain = 0
KMES 250155Z 05007KT 15/06 A3005 RMK A01 T01480059  RH  056%=      5-min Rain = 0
KMES 250200Z 05006KT 15/06 A3005 RMK A01 T01470059  RH  057%=      5-min Rain = 0
KMES 250205Z 04007KT 15/06 A3006 RMK A01 T01460060  RH  058%=      5-min Rain = 0
KMES 250210Z 04007KT 14/06 A3006 RMK A01 T01440061  RH  059%=      5-min Rain = 0
KMES 250215Z 05006KT 14/06 A3006 RMK A01 T01430059  RH  058%=      5-min Rain = 0
KMES 250220Z 05005KT 14/06 A3006 RMK A01 T01420060  RH  059%=      5-min Rain = 0
KMES 250225Z 05005KT 14/06 A3006 RMK A01 T01390060  RH  060%=      5-min Rain = 0
KMES 250230Z 05004KT 14/06 A3007 RMK A01 T01360060  RH  062%=      5-min Rain = 0
KMES 250235Z 06005KT 13/06 A3007 RMK A01 T01340060  RH  062%=      5-min Rain = 0
KMES 250240Z 05005KT 13/06 A3007 RMK A01 T01330059  RH  063%=      5-min Rain = 0
KMES 250245Z 05005KT 13/06 A3007 RMK A01 T01320059  RH  062%=      5-min Rain = 0
KMES 250250Z 05005KT 13/06 A3007 RMK A01 T01320059  RH  063%=      5-min Rain = 0
KMES 250255Z 05005KT 13/06 A3007 RMK A01 T01330059  RH  062%=      5-min Rain = 0
KMES 250300Z 06005KT 13/06 A3007 RMK A01 T01330059  RH  062%=      5-min Rain = 0
KMES 250305Z 06005KT 13/06 A3008 RMK A01 T01330059  RH  062%=      5-min Rain = 0
KMES 250310Z 06004KT 13/06 A3008 RMK A01 T01320059  RH  063%=      5-min Rain = 0
KMES 250315Z 05004KT 13/06 A3008 RMK A01 T01290060  RH  064%=      5-min Rain = 0
KMES 250320Z 06003KT 13/06 A3008 RMK A01 T01270059  RH  065%=      5-min Rain = 0
KMES 250325Z 07003KT 13/06 A3008 RMK A01 T01270059  RH  065%=      5-min Rain = 0
KMES 250330Z 07003KT 13/06 A3008 RMK A01 T01290059  RH  064%=      5-min Rain = 0
KMES 250335Z 08003KT 13/06 A3008 RMK A01 T01300060  RH  064%=      5-min Rain = 0
KMES 250340Z 07003KT 13/06 A3008 RMK A01 T01310061  RH  064%=      5-min Rain = 0
KMES 250345Z 07002KT 13/06 A3008 RMK A01 T01300062  RH  065%=      5-min Rain = 0
KMES 250350Z 06002KT 13/06 A3008 RMK A01 T01290061  RH  065%=      5-min Rain = 0
KMES 250355Z 06002KT 13/06 A3008 RMK A01 T01270061  RH  066%=      5-min Rain = 0
KMES 250400Z 06002KT 12/06 A3008 RMK A01 T01240061  RH  067%=      5-min Rain = 0
KMES 250405Z 06001KT 12/06 A3008 RMK A01 T01240061  RH  067%=      5-min Rain = 0
KMES 250410Z 05000KT 12/06 A3008 RMK A01 T01230061  RH  067%=      5-min Rain = 0
KMES 250415Z 01002KT 12/06 A3008 RMK A01 T01230062  RH  068%=      5-min Rain = 0
KMES 250420Z 36002KT 12/07 A3008 RMK A01 T01200065  RH  071%=      5-min Rain = 0
KMES 250425Z 02004KT 12/07 A3009 RMK A01 T01150066  RH  073%=      5-min Rain = 0
KMES 250430Z 01005KT 11/07 A3009 RMK A01 T01110067  RH  076%=      5-min Rain = 0
KMES 250435Z 01005KT 11/07 A3009 RMK A01 T01100066  RH  076%=      5-min Rain = 0
KMES 250440Z 01004KT 11/07 A3009 RMK A01 T01100065  RH  076%=      5-min Rain = 0
KMES 250445Z 01004KT 11/07 A3009 RMK A01 T01100065  RH  076%=      5-min Rain = 0
KMES 250450Z 01004KT 11/07 A301 RMK A01 T01090065  RH  076%=      5-min Rain = 0
KMES 250455Z 35005KT 11/07 A301 RMK A01 T01090066  RH  077%=      5-min Rain = 0

Page generated in 0.0091 seconds.